UAE46 EDDF-EBBR
Flight info
| Callsign | UAE46 |
|---|---|
| Flight time | 0h 37m |
| Altitude | 22000 |
| Route | SOBRA Y180 BITBU Y181 GOPAS N852 LNO |
| Aircraft | A388/J-SADE2E3FGHIJ3J4J5M1RWXY/L |
Departure
| Time | 2026-05-07 05:47 |
|---|---|
| Airport | Frankfurt Main Airport (EDDF) |
Arrival
| Time | 2026-05-07 06:24 |
|---|---|
| Airport | Brussels Airport (EBBR) |
| Time | Latitude | Longitude | Altitude | Speed | Heading |
|---|---|---|---|---|---|
| 2026-05-07 05:32 | 50.03058 | 8.57329 | 367 ft | 0 kts | 25° |
| 2026-05-07 05:35 | 50.03055 | 8.57327 | 368 ft | 2 kts | 24° |
| 2026-05-07 05:36 | 50.03040 | 8.57317 | 369 ft | 2 kts | 20° |
| 2026-05-07 05:36 | 50.03024 | 8.57310 | 367 ft | 2 kts | 14° |
| 2026-05-07 05:36 | 50.03008 | 8.57307 | 366 ft | 2 kts | 5° |
| 2026-05-07 05:36 | 50.02991 | 8.57308 | 364 ft | 2 kts | 354° |
| 2026-05-07 05:37 | 50.02976 | 8.57316 | 365 ft | 2 kts | 339° |
| 2026-05-07 05:37 | 50.02962 | 8.57330 | 367 ft | 2 kts | 321° |
| 2026-05-07 05:37 | 50.02952 | 8.57350 | 364 ft | 2 kts | 304° |
| 2026-05-07 05:37 | 50.02950 | 8.57357 | 365 ft | 0 kts | 299° |
| 2026-05-07 05:38 | 50.02952 | 8.57350 | 358 ft | 2 kts | 298° |
| 2026-05-07 05:38 | 50.02964 | 8.57309 | 364 ft | 6 kts | 294° |
| 2026-05-07 05:39 | 50.02986 | 8.57235 | 360 ft | 9 kts | 294° |
| 2026-05-07 05:39 | 50.03016 | 8.57131 | 361 ft | 12 kts | 294° |
| 2026-05-07 05:39 | 50.03052 | 8.57011 | 361 ft | 13 kts | 301° |
| 2026-05-07 05:39 | 50.03119 | 8.56921 | 365 ft | 12 kts | 338° |
| 2026-05-07 05:40 | 50.03199 | 8.56874 | 361 ft | 14 kts | 340° |
| 2026-05-07 05:40 | 50.03296 | 8.56819 | 362 ft | 13 kts | 340° |
| 2026-05-07 05:40 | 50.03375 | 8.56838 | 363 ft | 12 kts | 55° |
| 2026-05-07 05:40 | 50.03414 | 8.56979 | 363 ft | 16 kts | 70° |
| 2026-05-07 05:41 | 50.03457 | 8.57162 | 365 ft | 20 kts | 69° |
| 2026-05-07 05:41 | 50.03509 | 8.57377 | 366 ft | 23 kts | 70° |
| 2026-05-07 05:41 | 50.03564 | 8.57610 | 368 ft | 22 kts | 70° |
| 2026-05-07 05:41 | 50.03611 | 8.57806 | 369 ft | 19 kts | 69° |
| 2026-05-07 05:42 | 50.03660 | 8.58014 | 368 ft | 22 kts | 69° |
| 2026-05-07 05:42 | 50.03716 | 8.58246 | 370 ft | 21 kts | 69° |
| 2026-05-07 05:42 | 50.03769 | 8.58466 | 369 ft | 20 kts | 69° |
| 2026-05-07 05:42 | 50.03817 | 8.58654 | 372 ft | 15 kts | 52° |
| 2026-05-07 05:43 | 50.03899 | 8.58676 | 375 ft | 12 kts | 339° |
| 2026-05-07 05:43 | 50.03973 | 8.58616 | 378 ft | 13 kts | 331° |
| 2026-05-07 05:43 | 50.04067 | 8.58577 | 374 ft | 16 kts | 1° |
| 2026-05-07 05:43 | 50.04187 | 8.58596 | 379 ft | 18 kts | 7° |
| 2026-05-07 05:44 | 50.04268 | 8.58612 | 376 ft | 5 kts | 7° |
| 2026-05-07 05:44 | 50.04318 | 8.58622 | 374 ft | 10 kts | 6° |
| 2026-05-07 05:44 | 50.04358 | 8.58629 | 374 ft | 0 kts | 6° |
| 2026-05-07 05:45 | 50.04370 | 8.58631 | 375 ft | 4 kts | 6° |
| 2026-05-07 05:45 | 50.04413 | 8.58639 | 375 ft | 8 kts | 6° |
| 2026-05-07 05:45 | 50.04468 | 8.58618 | 380 ft | 8 kts | 315° |
| 2026-05-07 05:46 | 50.04479 | 8.58554 | 377 ft | 2 kts | 252° |
| 2026-05-07 05:46 | 50.04476 | 8.58542 | 376 ft | 2 kts | 250° |
| 2026-05-07 05:46 | 50.04394 | 8.58193 | 374 ft | 78 kts | 249° |
| 2026-05-07 05:46 | 50.04119 | 8.57046 | 371 ft | 141 kts | 249° |
| 2026-05-07 05:47 | 50.03733 | 8.55497 | 647 ft | 159 kts | 250° |
| 2026-05-07 05:47 | 50.03346 | 8.53897 | 1275 ft | 157 kts | 252° |
| 2026-05-07 05:47 | 50.02966 | 8.52292 | 1901 ft | 159 kts | 253° |
| 2026-05-07 05:47 | 50.02534 | 8.50723 | 2509 ft | 161 kts | 237° |
| 2026-05-07 05:48 | 50.01649 | 8.49576 | 3134 ft | 170 kts | 212° |
| 2026-05-07 05:48 | 50.00486 | 8.49130 | 3779 ft | 181 kts | 182° |
| 2026-05-07 05:48 | 49.99177 | 8.49233 | 4201 ft | 196 kts | 181° |
| 2026-05-07 05:48 | 49.97747 | 8.49186 | 4474 ft | 219 kts | 185° |
| 2026-05-07 05:49 | 49.96171 | 8.48941 | 4995 ft | 239 kts | 195° |
| 2026-05-07 05:49 | 49.94639 | 8.47755 | 5523 ft | 256 kts | 222° |
| 2026-05-07 05:49 | 49.93328 | 8.45756 | 6178 ft | 269 kts | 227° |
| 2026-05-07 05:49 | 49.91997 | 8.43682 | 7103 ft | 272 kts | 227° |
| 2026-05-07 05:50 | 49.90853 | 8.41359 | 7983 ft | 271 kts | 249° |
| 2026-05-07 05:50 | 49.90492 | 8.38545 | 8975 ft | 266 kts | 275° |
| 2026-05-07 05:50 | 49.90961 | 8.35791 | 9910 ft | 266 kts | 293° |
| 2026-05-07 05:50 | 49.91709 | 8.33088 | 10444 ft | 283 kts | 294° |
| 2026-05-07 05:51 | 49.92494 | 8.30147 | 10702 ft | 306 kts | 293° |
| 2026-05-07 05:51 | 49.93326 | 8.26990 | 11057 ft | 323 kts | 293° |
| 2026-05-07 05:51 | 49.94179 | 8.23776 | 11724 ft | 329 kts | 293° |
| 2026-05-07 05:51 | 49.95073 | 8.20431 | 12425 ft | 335 kts | 293° |
| 2026-05-07 05:52 | 49.95969 | 8.17097 | 13060 ft | 341 kts | 293° |
| 2026-05-07 05:52 | 49.96884 | 8.13687 | 13894 ft | 342 kts | 293° |
| 2026-05-07 05:52 | 49.97804 | 8.10252 | 14569 ft | 346 kts | 293° |
| 2026-05-07 05:52 | 49.98742 | 8.06753 | 15113 ft | 354 kts | 293° |
| 2026-05-07 05:53 | 49.99687 | 8.03214 | 15831 ft | 355 kts | 293° |
| 2026-05-07 05:53 | 50.00630 | 7.99676 | 16621 ft | 355 kts | 292° |
| 2026-05-07 05:53 | 50.01583 | 7.96097 | 17149 ft | 363 kts | 292° |
| 2026-05-07 05:53 | 50.02549 | 7.92464 | 17838 ft | 365 kts | 292° |
| 2026-05-07 05:54 | 50.03525 | 7.88788 | 18419 ft | 369 kts | 292° |
| 2026-05-07 05:54 | 50.04506 | 7.85087 | 19004 ft | 371 kts | 292° |
| 2026-05-07 05:54 | 50.05480 | 7.81408 | 19626 ft | 372 kts | 292° |
| 2026-05-07 05:54 | 50.06470 | 7.77661 | 20140 ft | 375 kts | 292° |
| 2026-05-07 05:55 | 50.07462 | 7.73901 | 20770 ft | 376 kts | 292° |
| 2026-05-07 05:55 | 50.08462 | 7.70102 | 21223 ft | 381 kts | 292° |
| 2026-05-07 05:55 | 50.09466 | 7.66283 | 21843 ft | 382 kts | 292° |
| 2026-05-07 05:55 | 50.10485 | 7.62403 | 21961 ft | 394 kts | 292° |
| 2026-05-07 05:56 | 50.11540 | 7.58375 | 21948 ft | 408 kts | 292° |
| 2026-05-07 05:56 | 50.12619 | 7.54251 | 21948 ft | 412 kts | 292° |
| 2026-05-07 05:56 | 50.13698 | 7.50116 | 21956 ft | 410 kts | 292° |
| 2026-05-07 05:56 | 50.14768 | 7.46011 | 21955 ft | 409 kts | 292° |
| 2026-05-07 05:57 | 50.15843 | 7.41878 | 21956 ft | 410 kts | 292° |
| 2026-05-07 05:57 | 50.16912 | 7.37761 | 21968 ft | 411 kts | 292° |
| 2026-05-07 05:57 | 50.17987 | 7.33615 | 21961 ft | 412 kts | 292° |
| 2026-05-07 05:57 | 50.19059 | 7.29470 | 21961 ft | 412 kts | 292° |
| 2026-05-07 05:58 | 50.20130 | 7.25316 | 21959 ft | 413 kts | 292° |
| 2026-05-07 05:58 | 50.21187 | 7.21215 | 21958 ft | 412 kts | 292° |
| 2026-05-07 05:58 | 50.22266 | 7.17023 | 21966 ft | 409 kts | 292° |
| 2026-05-07 05:58 | 50.23312 | 7.12953 | 21963 ft | 409 kts | 292° |
| 2026-05-07 05:59 | 50.24374 | 7.08812 | 21967 ft | 413 kts | 292° |
| 2026-05-07 05:59 | 50.25441 | 7.04644 | 21974 ft | 413 kts | 292° |
| 2026-05-07 05:59 | 50.26502 | 7.00490 | 21961 ft | 410 kts | 292° |
| 2026-05-07 05:59 | 50.27560 | 6.96342 | 21961 ft | 413 kts | 292° |
| 2026-05-07 06:00 | 50.28626 | 6.92154 | 21959 ft | 413 kts | 292° |
| 2026-05-07 06:00 | 50.29687 | 6.87975 | 21963 ft | 412 kts | 292° |
| 2026-05-07 06:00 | 50.30747 | 6.83795 | 21964 ft | 413 kts | 292° |
| 2026-05-07 06:00 | 50.31802 | 6.79625 | 21962 ft | 413 kts | 292° |
| 2026-05-07 06:01 | 50.32857 | 6.75447 | 21969 ft | 413 kts | 292° |
| 2026-05-07 06:01 | 50.33910 | 6.71272 | 21971 ft | 413 kts | 292° |
| 2026-05-07 06:01 | 50.34961 | 6.67096 | 21971 ft | 412 kts | 292° |
| 2026-05-07 06:01 | 50.36000 | 6.62957 | 21924 ft | 402 kts | 292° |
| 2026-05-07 06:02 | 50.37009 | 6.58933 | 21611 ft | 390 kts | 291° |
| 2026-05-07 06:02 | 50.37975 | 6.55069 | 21308 ft | 382 kts | 292° |
| 2026-05-07 06:02 | 50.38933 | 6.51233 | 20838 ft | 377 kts | 291° |
| 2026-05-07 06:02 | 50.39886 | 6.47412 | 20216 ft | 375 kts | 291° |
| 2026-05-07 06:03 | 50.40839 | 6.43591 | 19584 ft | 375 kts | 291° |
| 2026-05-07 06:03 | 50.41783 | 6.39793 | 19052 ft | 372 kts | 291° |
| 2026-05-07 06:03 | 50.42713 | 6.36041 | 18610 ft | 366 kts | 291° |
| 2026-05-07 06:03 | 50.43630 | 6.32338 | 18076 ft | 362 kts | 291° |
| 2026-05-07 06:04 | 50.44542 | 6.28650 | 17383 ft | 362 kts | 291° |
| 2026-05-07 06:04 | 50.45450 | 6.24972 | 16800 ft | 360 kts | 291° |
| 2026-05-07 06:04 | 50.46343 | 6.21348 | 16349 ft | 353 kts | 291° |
| 2026-05-07 06:04 | 50.47225 | 6.17765 | 15769 ft | 351 kts | 291° |
| 2026-05-07 06:05 | 50.48101 | 6.14199 | 15140 ft | 350 kts | 291° |
| 2026-05-07 06:05 | 50.48973 | 6.10644 | 14667 ft | 346 kts | 291° |
| 2026-05-07 06:05 | 50.49836 | 6.07124 | 14090 ft | 344 kts | 291° |
| 2026-05-07 06:05 | 50.50690 | 6.03633 | 13578 ft | 341 kts | 291° |
| 2026-05-07 06:06 | 50.51534 | 6.00172 | 12961 ft | 339 kts | 291° |
| 2026-05-07 06:06 | 50.52373 | 5.96727 | 12386 ft | 336 kts | 291° |
| 2026-05-07 06:06 | 50.53203 | 5.93312 | 11829 ft | 333 kts | 291° |
| 2026-05-07 06:06 | 50.54020 | 5.89951 | 11266 ft | 331 kts | 291° |
| 2026-05-07 06:07 | 50.54837 | 5.86581 | 10724 ft | 329 kts | 291° |
| 2026-05-07 06:07 | 50.55644 | 5.83249 | 10364 ft | 321 kts | 291° |
| 2026-05-07 06:07 | 50.56421 | 5.80037 | 10215 ft | 307 kts | 291° |
| 2026-05-07 06:07 | 50.57163 | 5.76967 | 10105 ft | 293 kts | 291° |
| 2026-05-07 06:08 | 50.57871 | 5.74034 | 10009 ft | 280 kts | 291° |
| 2026-05-07 06:08 | 50.58628 | 5.71266 | 10004 ft | 272 kts | 299° |
| 2026-05-07 06:08 | 50.59675 | 5.68819 | 9895 ft | 270 kts | 310° |
| 2026-05-07 06:08 | 50.60862 | 5.66569 | 9751 ft | 267 kts | 310° |
| 2026-05-07 06:09 | 50.62033 | 5.64290 | 9408 ft | 268 kts | 309° |
| 2026-05-07 06:09 | 50.63196 | 5.62005 | 9128 ft | 267 kts | 309° |
| 2026-05-07 06:09 | 50.64354 | 5.59726 | 8799 ft | 266 kts | 309° |
| 2026-05-07 06:09 | 50.65507 | 5.57460 | 8457 ft | 264 kts | 309° |
| 2026-05-07 06:10 | 50.66657 | 5.55196 | 8085 ft | 263 kts | 309° |
| 2026-05-07 06:10 | 50.67796 | 5.52949 | 7713 ft | 262 kts | 309° |
| 2026-05-07 06:10 | 50.68914 | 5.50742 | 7431 ft | 261 kts | 309° |
| 2026-05-07 06:10 | 50.70046 | 5.48507 | 7126 ft | 260 kts | 309° |
| 2026-05-07 06:11 | 50.71167 | 5.46288 | 6829 ft | 257 kts | 309° |
| 2026-05-07 06:11 | 50.72285 | 5.44077 | 6535 ft | 257 kts | 309° |
| 2026-05-07 06:11 | 50.73402 | 5.41866 | 6182 ft | 257 kts | 309° |
| 2026-05-07 06:11 | 50.74513 | 5.39664 | 6026 ft | 255 kts | 309° |
| 2026-05-07 06:12 | 50.75617 | 5.37476 | 6018 ft | 255 kts | 309° |
| 2026-05-07 06:12 | 50.76719 | 5.35290 | 6014 ft | 254 kts | 309° |
| 2026-05-07 06:12 | 50.77820 | 5.33104 | 6016 ft | 253 kts | 309° |
| 2026-05-07 06:12 | 50.78893 | 5.30968 | 6018 ft | 241 kts | 309° |
| 2026-05-07 06:13 | 50.79916 | 5.28931 | 6015 ft | 232 kts | 309° |
| 2026-05-07 06:13 | 50.80900 | 5.26968 | 6012 ft | 225 kts | 309° |
| 2026-05-07 06:13 | 50.81863 | 5.25049 | 6012 ft | 223 kts | 309° |
| 2026-05-07 06:13 | 50.82828 | 5.23130 | 6013 ft | 223 kts | 309° |
| 2026-05-07 06:14 | 50.83793 | 5.21204 | 6015 ft | 223 kts | 309° |
| 2026-05-07 06:14 | 50.84751 | 5.19289 | 5970 ft | 222 kts | 309° |
| 2026-05-07 06:14 | 50.85713 | 5.17368 | 5857 ft | 220 kts | 309° |
| 2026-05-07 06:14 | 50.86655 | 5.15484 | 5549 ft | 222 kts | 309° |
| 2026-05-07 06:15 | 50.87614 | 5.13560 | 5301 ft | 222 kts | 308° |
| 2026-05-07 06:15 | 50.88456 | 5.11510 | 5033 ft | 222 kts | 303° |
| 2026-05-07 06:15 | 50.89271 | 5.09455 | 4772 ft | 222 kts | 304° |
| 2026-05-07 06:15 | 50.90105 | 5.07382 | 4541 ft | 221 kts | 304° |
| 2026-05-07 06:16 | 50.90931 | 5.05336 | 4291 ft | 220 kts | 304° |
| 2026-05-07 06:16 | 50.91755 | 5.03293 | 4053 ft | 219 kts | 304° |
| 2026-05-07 06:16 | 50.92575 | 5.01253 | 4002 ft | 219 kts | 304° |
| 2026-05-07 06:16 | 50.93394 | 4.99205 | 4005 ft | 220 kts | 304° |
| 2026-05-07 06:17 | 50.94213 | 4.97147 | 3994 ft | 220 kts | 304° |
| 2026-05-07 06:17 | 50.95026 | 4.95101 | 3937 ft | 219 kts | 304° |
| 2026-05-07 06:17 | 50.95834 | 4.93070 | 3721 ft | 218 kts | 304° |
| 2026-05-07 06:17 | 50.96645 | 4.91017 | 3465 ft | 220 kts | 304° |
| 2026-05-07 06:18 | 50.97452 | 4.88964 | 3211 ft | 219 kts | 304° |
| 2026-05-07 06:18 | 50.98253 | 4.86932 | 3089 ft | 213 kts | 304° |
| 2026-05-07 06:18 | 50.98796 | 4.84811 | 3023 ft | 204 kts | 283° |
| 2026-05-07 06:18 | 50.99026 | 4.82672 | 3007 ft | 189 kts | 282° |
| 2026-05-07 06:19 | 50.99244 | 4.80604 | 3004 ft | 190 kts | 279° |
| 2026-05-07 06:19 | 50.99203 | 4.78525 | 3007 ft | 194 kts | 260° |
| 2026-05-07 06:19 | 50.98793 | 4.76483 | 3007 ft | 195 kts | 250° |
| 2026-05-07 06:19 | 50.98249 | 4.74512 | 3006 ft | 195 kts | 246° |
| 2026-05-07 06:20 | 50.97682 | 4.72557 | 3006 ft | 195 kts | 247° |
| 2026-05-07 06:20 | 50.97133 | 4.70643 | 2996 ft | 183 kts | 247° |
| 2026-05-07 06:20 | 50.96614 | 4.68848 | 2763 ft | 176 kts | 247° |
| 2026-05-07 06:20 | 50.96282 | 4.67690 | 2601 ft | 173 kts | 247° |
| 2026-05-07 06:21 | 50.95783 | 4.65962 | 2383 ft | 172 kts | 247° |
| 2026-05-07 06:21 | 50.95286 | 4.64238 | 2133 ft | 171 kts | 247° |
| 2026-05-07 06:21 | 50.94799 | 4.62556 | 1893 ft | 160 kts | 246° |
| 2026-05-07 06:21 | 50.94345 | 4.60981 | 1692 ft | 154 kts | 246° |
| 2026-05-07 06:22 | 50.93902 | 4.59444 | 1474 ft | 153 kts | 246° |
| 2026-05-07 06:22 | 50.93025 | 4.56407 | 1047 ft | 150 kts | 246° |
| 2026-05-07 06:22 | 50.92594 | 4.54914 | 833 ft | 148 kts | 246° |
| 2026-05-07 06:23 | 50.92168 | 4.53441 | 643 ft | 147 kts | 248° |
| 2026-05-07 06:23 | 50.91748 | 4.51981 | 420 ft | 146 kts | 248° |
| 2026-05-07 06:23 | 50.91324 | 4.50535 | 215 ft | 144 kts | 247° |
| 2026-05-07 06:23 | 50.90915 | 4.49120 | 124 ft | 131 kts | 247° |
| 2026-05-07 06:24 | 50.90609 | 4.48048 | 122 ft | 80 kts | 245° |
| 2026-05-07 06:24 | 50.90400 | 4.47614 | 123 ft | 14 kts | 215° |
| 2026-05-07 06:24 | 50.90348 | 4.47575 | 124 ft | 9 kts | 174° |
| 2026-05-07 06:24 | 50.90316 | 4.47654 | 123 ft | 10 kts | 78° |
| 2026-05-07 06:25 | 50.90343 | 4.47759 | 122 ft | 12 kts | 65° |
| 2026-05-07 06:25 | 50.90384 | 4.47899 | 122 ft | 16 kts | 66° |
| 2026-05-07 06:25 | 50.90433 | 4.48070 | 122 ft | 18 kts | 65° |
| 2026-05-07 06:25 | 50.90488 | 4.48262 | 123 ft | 20 kts | 65° |
| 2026-05-07 06:26 | 50.90549 | 4.48470 | 122 ft | 22 kts | 65° |
| 2026-05-07 06:26 | 50.90614 | 4.48695 | 120 ft | 23 kts | 65° |
| 2026-05-07 06:26 | 50.90683 | 4.48931 | 121 ft | 19 kts | 65° |
| 2026-05-07 06:26 | 50.90700 | 4.49079 | 123 ft | 13 kts | 122° |
| 2026-05-07 06:27 | 50.90617 | 4.49158 | 123 ft | 16 kts | 158° |
| 2026-05-07 06:27 | 50.90512 | 4.49231 | 127 ft | 18 kts | 155° |
| 2026-05-07 06:27 | 50.90386 | 4.49325 | 125 ft | 17 kts | 152° |
| 2026-05-07 06:27 | 50.90271 | 4.49394 | 128 ft | 14 kts | 178° |
| 2026-05-07 06:28 | 50.90188 | 4.49366 | 131 ft | 12 kts | 195° |
| 2026-05-07 06:28 | 50.90136 | 4.49344 | 134 ft | 0 kts | 195° |
| 2026-05-07 06:29 | 50.90135 | 4.49343 | 131 ft | 2 kts | 195° |
| 2026-05-07 06:29 | 50.90103 | 4.49330 | 133 ft | 8 kts | 195° |
| 2026-05-07 06:29 | 50.90033 | 4.49300 | 136 ft | 12 kts | 195° |
| 2026-05-07 06:29 | 50.89969 | 4.49221 | 139 ft | 12 kts | 243° |
| 2026-05-07 06:30 | 50.89933 | 4.49096 | 141 ft | 10 kts | 246° |
| 2026-05-07 06:30 | 50.89909 | 4.49004 | 141 ft | 7 kts | 265° |
| 2026-05-07 06:30 | 50.89931 | 4.48937 | 139 ft | 7 kts | 328° |
| 2026-05-07 06:30 | 50.89975 | 4.48898 | 134 ft | 4 kts | 333° |
| 2026-05-07 06:31 | 50.89980 | 4.48893 | 131 ft | 0 kts | 335° |